sensor_id;sensor_type;location;lat;lon;timestamp;P1;durP1;ratioP1;P2;durP2;ratioP2
20067;SDS011;10194;50.824;7.134;2023-05-24T00:01:41;133.07;;;67.53;;
20067;SDS011;10194;50.824;7.134;2023-05-24T00:04:07;128.87;;;69.20;;
20067;SDS011;10194;50.824;7.134;2023-05-24T00:06:34;132.63;;;67.67;;
20067;SDS011;10194;50.824;7.134;2023-05-24T00:09:01;129.83;;;71.90;;
20067;SDS011;10194;50.824;7.134;2023-05-24T00:11:29;132.93;;;71.77;;
20067;SDS011;10194;50.824;7.134;2023-05-24T00:13:55;134.23;;;72.73;;
20067;SDS011;10194;50.824;7.134;2023-05-24T00:16:21;126.07;;;69.03;;
20067;SDS011;10194;50.824;7.134;2023-05-24T00:18:47;125.73;;;67.57;;
20067;SDS011;10194;50.824;7.134;2023-05-24T00:21:13;136.23;;;69.67;;
20067;SDS011;10194;50.824;7.134;2023-05-24T00:23:39;126.00;;;68.93;;
20067;SDS011;10194;50.824;7.134;2023-05-24T00:26:06;129.23;;;69.20;;
20067;SDS011;10194;50.824;7.134;2023-05-24T00:28:32;135.37;;;74.30;;
20067;SDS011;10194;50.824;7.134;2023-05-24T00:30:58;133.70;;;73.23;;
20067;SDS011;10194;50.824;7.134;2023-05-24T00:33:24;138.83;;;73.80;;
20067;SDS011;10194;50.824;7.134;2023-05-24T00:35:51;130.90;;;70.50;;
20067;SDS011;10194;50.824;7.134;2023-05-24T00:38:23;130.87;;;71.47;;
20067;SDS011;10194;50.824;7.134;2023-05-24T00:40:55;128.60;;;73.03;;
20067;SDS011;10194;50.824;7.134;2023-05-24T00:43:21;141.37;;;82.40;;
20067;SDS011;10194;50.824;7.134;2023-05-24T00:45:48;140.10;;;85.87;;
20067;SDS011;10194;50.824;7.134;2023-05-24T00:48:41;138.57;;;92.53;;
20067;SDS011;10194;50.824;7.134;2023-05-24T00:51:09;150.00;;;98.20;;
20067;SDS011;10194;50.824;7.134;2023-05-24T00:53:36;145.53;;;102.80;;
20067;SDS011;10194;50.824;7.134;2023-05-24T00:56:04;153.90;;;110.93;;
20067;SDS011;10194;50.824;7.134;2023-05-24T00:58:31;152.70;;;115.30;;
20067;SDS011;10194;50.824;7.134;2023-05-24T01:01:00;153.73;;;117.80;;
20067;SDS011;10194;50.824;7.134;2023-05-24T01:03:27;165.87;;;129.27;;
20067;SDS011;10194;50.824;7.134;2023-05-24T01:05:54;165.27;;;134.70;;
20067;SDS011;10194;50.824;7.134;2023-05-24T01:08:35;165.90;;;141.80;;
20067;SDS011;10194;50.824;7.134;2023-05-24T01:11:16;174.87;;;155.87;;
20067;SDS011;10194;50.824;7.134;2023-05-24T01:16:55;174.60;;;151.27;;
20067;SDS011;10194;50.824;7.134;2023-05-24T01:19:56;168.13;;;149.43;;
20067;SDS011;10194;50.824;7.134;2023-05-24T01:28:15;173.40;;;153.87;;
20067;SDS011;10194;50.824;7.134;2023-05-24T01:30:42;173.23;;;152.13;;
20067;SDS011;10194;50.824;7.134;2023-05-24T01:33:09;168.97;;;145.37;;
20067;SDS011;10194;50.824;7.134;2023-05-24T01:35:35;170.80;;;144.40;;
20067;SDS011;10194;50.824;7.134;2023-05-24T01:38:07;167.43;;;147.67;;
20067;SDS011;10194;50.824;7.134;2023-05-24T01:40:36;165.93;;;147.30;;
20067;SDS011;10194;50.824;7.134;2023-05-24T01:43:17;170.80;;;151.93;;
20067;SDS011;10194;50.824;7.134;2023-05-24T01:49:30;179.47;;;154.80;;
20067;SDS011;10194;50.824;7.134;2023-05-24T01:51:48;175.90;;;150.73;;
20067;SDS011;10194;50.824;7.134;2023-05-24T01:54:20;174.77;;;151.70;;
20067;SDS011;10194;50.824;7.134;2023-05-24T01:56:51;174.00;;;154.23;;
20067;SDS011;10194;50.824;7.134;2023-05-24T01:59:19;183.37;;;158.57;;
20067;SDS011;10194;50.824;7.134;2023-05-24T02:01:48;179.13;;;154.37;;
20067;SDS011;10194;50.824;7.134;2023-05-24T02:04:15;179.77;;;154.87;;
20067;SDS011;10194;50.824;7.134;2023-05-24T02:06:41;181.93;;;153.80;;
20067;SDS011;10194;50.824;7.134;2023-05-24T02:09:07;178.37;;;152.73;;
20067;SDS011;10194;50.824;7.134;2023-05-24T02:11:33;183.80;;;148.37;;
20067;SDS011;10194;50.824;7.134;2023-05-24T02:13:59;179.67;;;144.80;;
20067;SDS011;10194;50.824;7.134;2023-05-24T02:16:24;179.87;;;143.30;;
20067;SDS011;10194;50.824;7.134;2023-05-24T02:18:55;182.80;;;141.07;;
20067;SDS011;10194;50.824;7.134;2023-05-24T02:21:21;184.67;;;144.13;;
20067;SDS011;10194;50.824;7.134;2023-05-24T02:23:48;181.13;;;141.10;;
20067;SDS011;10194;50.824;7.134;2023-05-24T02:26:14;186.87;;;140.93;;
20067;SDS011;10194;50.824;7.134;2023-05-24T02:28:42;184.70;;;140.90;;
20067;SDS011;10194;50.824;7.134;2023-05-24T02:31:08;186.43;;;138.53;;
20067;SDS011;10194;50.824;7.134;2023-05-24T02:33:34;183.77;;;139.00;;
20067;SDS011;10194;50.824;7.134;2023-05-24T02:36:00;187.00;;;138.43;;
20067;SDS011;10194;50.824;7.134;2023-05-24T02:38:26;183.30;;;137.33;;
20067;SDS011;10194;50.824;7.134;2023-05-24T02:40:52;186.67;;;138.17;;
20067;SDS011;10194;50.824;7.134;2023-05-24T02:43:18;186.50;;;136.70;;
20067;SDS011;10194;50.824;7.134;2023-05-24T02:45:43;183.37;;;139.47;;
20067;SDS011;10194;50.824;7.134;2023-05-24T02:48:09;187.10;;;136.30;;
20067;SDS011;10194;50.824;7.134;2023-05-24T02:50:35;183.97;;;136.83;;
20067;SDS011;10194;50.824;7.134;2023-05-24T02:53:01;187.13;;;139.50;;
20067;SDS011;10194;50.824;7.134;2023-05-24T02:55:27;187.80;;;135.53;;
20067;SDS011;10194;50.824;7.134;2023-05-24T02:57:53;183.23;;;145.67;;
20067;SDS011;10194;50.824;7.134;2023-05-24T03:00:20;183.83;;;141.07;;
20067;SDS011;10194;50.824;7.134;2023-05-24T03:02:46;186.97;;;143.03;;
20067;SDS011;10194;50.824;7.134;2023-05-24T03:05:12;186.40;;;146.27;;
20067;SDS011;10194;50.824;7.134;2023-05-24T03:07:37;188.37;;;147.20;;
20067;SDS011;10194;50.824;7.134;2023-05-24T03:10:03;187.03;;;144.87;;
20067;SDS011;10194;50.824;7.134;2023-05-24T03:12:31;182.20;;;140.20;;
20067;SDS011;10194;50.824;7.134;2023-05-24T03:14:56;184.43;;;143.70;;
20067;SDS011;10194;50.824;7.134;2023-05-24T03:17:22;186.30;;;146.60;;
20067;SDS011;10194;50.824;7.134;2023-05-24T03:19:48;188.80;;;149.57;;
20067;SDS011;10194;50.824;7.134;2023-05-24T03:22:14;183.83;;;145.77;;
20067;SDS011;10194;50.824;7.134;2023-05-24T03:24:39;187.17;;;157.20;;
20067;SDS011;10194;50.824;7.134;2023-05-24T03:27:05;185.20;;;155.40;;
20067;SDS011;10194;50.824;7.134;2023-05-24T03:29:31;187.27;;;150.03;;
20067;SDS011;10194;50.824;7.134;2023-05-24T03:31:56;185.77;;;148.87;;
20067;SDS011;10194;50.824;7.134;2023-05-24T03:34:22;186.10;;;144.63;;
20067;SDS011;10194;50.824;7.134;2023-05-24T03:36:48;181.27;;;138.87;;
20067;SDS011;10194;50.824;7.134;2023-05-24T03:39:14;185.83;;;142.23;;
20067;SDS011;10194;50.824;7.134;2023-05-24T03:41:39;190.17;;;141.60;;
20067;SDS011;10194;50.824;7.134;2023-05-24T03:44:05;179.97;;;144.83;;
20067;SDS011;10194;50.824;7.134;2023-05-24T03:46:31;185.83;;;147.93;;
20067;SDS011;10194;50.824;7.134;2023-05-24T03:48:57;184.20;;;142.67;;
20067;SDS011;10194;50.824;7.134;2023-05-24T03:51:22;182.97;;;147.50;;
20067;SDS011;10194;50.824;7.134;2023-05-24T03:53:56;184.33;;;145.73;;
20067;SDS011;10194;50.824;7.134;2023-05-24T03:56:22;184.37;;;148.50;;
20067;SDS011;10194;50.824;7.134;2023-05-24T03:58:50;182.93;;;139.87;;
20067;SDS011;10194;50.824;7.134;2023-05-24T04:01:17;183.73;;;145.73;;
20067;SDS011;10194;50.824;7.134;2023-05-24T04:03:46;191.70;;;147.87;;
20067;SDS011;10194;50.824;7.134;2023-05-24T04:06:12;188.23;;;151.63;;
20067;SDS011;10194;50.824;7.134;2023-05-24T04:08:38;189.60;;;144.00;;
20067;SDS011;10194;50.824;7.134;2023-05-24T04:11:04;182.90;;;143.63;;
20067;SDS011;10194;50.824;7.134;2023-05-24T04:13:30;183.30;;;142.87;;
20067;SDS011;10194;50.824;7.134;2023-05-24T04:15:56;184.37;;;137.80;;
20067;SDS011;10194;50.824;7.134;2023-05-24T04:18:21;184.07;;;142.53;;
20067;SDS011;10194;50.824;7.134;2023-05-24T04:20:47;181.37;;;140.33;;
20067;SDS011;10194;50.824;7.134;2023-05-24T04:23:13;183.10;;;140.53;;
20067;SDS011;10194;50.824;7.134;2023-05-24T04:25:39;189.17;;;142.40;;
20067;SDS011;10194;50.824;7.134;2023-05-24T04:28:04;184.83;;;143.80;;
20067;SDS011;10194;50.824;7.134;2023-05-24T04:30:30;185.37;;;141.80;;
20067;SDS011;10194;50.824;7.134;2023-05-24T04:32:56;183.20;;;137.13;;
20067;SDS011;10194;50.824;7.134;2023-05-24T04:35:23;191.57;;;144.03;;
20067;SDS011;10194;50.824;7.134;2023-05-24T04:37:49;186.87;;;142.50;;
20067;SDS011;10194;50.824;7.134;2023-05-24T04:40:16;190.57;;;141.67;;
20067;SDS011;10194;50.824;7.134;2023-05-24T04:42:44;191.17;;;144.17;;
20067;SDS011;10194;50.824;7.134;2023-05-24T04:45:10;183.43;;;145.67;;
20067;SDS011;10194;50.824;7.134;2023-05-24T04:47:36;188.30;;;144.27;;
20067;SDS011;10194;50.824;7.134;2023-05-24T04:50:03;185.20;;;153.70;;
20067;SDS011;10194;50.824;7.134;2023-05-24T04:52:30;185.27;;;156.60;;
20067;SDS011;10194;50.824;7.134;2023-05-24T04:54:57;190.87;;;160.37;;
20067;SDS011;10194;50.824;7.134;2023-05-24T04:57:23;195.97;;;163.20;;
20067;SDS011;10194;50.824;7.134;2023-05-24T04:59:48;192.20;;;164.97;;
20067;SDS011;10194;50.824;7.134;2023-05-24T05:02:14;195.70;;;170.07;;
20067;SDS011;10194;50.824;7.134;2023-05-24T05:04:40;193.23;;;170.90;;
20067;SDS011;10194;50.824;7.134;2023-05-24T05:07:06;196.73;;;175.63;;
20067;SDS011;10194;50.824;7.134;2023-05-24T05:09:32;196.00;;;174.30;;
20067;SDS011;10194;50.824;7.134;2023-05-24T05:11:58;197.77;;;176.57;;
20067;SDS011;10194;50.824;7.134;2023-05-24T05:14:24;197.63;;;176.73;;
20067;SDS011;10194;50.824;7.134;2023-05-24T05:16:49;196.43;;;175.67;;
20067;SDS011;10194;50.824;7.134;2023-05-24T05:19:15;201.90;;;180.10;;
20067;SDS011;10194;50.824;7.134;2023-05-24T05:21:41;199.43;;;178.77;;
20067;SDS011;10194;50.824;7.134;2023-05-24T05:24:07;200.57;;;179.47;;
20067;SDS011;10194;50.824;7.134;2023-05-24T05:26:32;194.87;;;174.53;;
20067;SDS011;10194;50.824;7.134;2023-05-24T05:28:59;186.97;;;166.83;;
20067;SDS011;10194;50.824;7.134;2023-05-24T05:31:25;198.40;;;177.67;;
20067;SDS011;10194;50.824;7.134;2023-05-24T05:33:51;197.40;;;177.00;;
20067;SDS011;10194;50.824;7.134;2023-05-24T05:36:17;190.80;;;171.03;;
20067;SDS011;10194;50.824;7.134;2023-05-24T05:38:43;177.97;;;158.30;;
20067;SDS011;10194;50.824;7.134;2023-05-24T05:41:08;175.50;;;152.90;;
20067;SDS011;10194;50.824;7.134;2023-05-24T05:43:35;162.20;;;127.50;;
20067;SDS011;10194;50.824;7.134;2023-05-24T05:46:01;159.63;;;121.67;;
20067;SDS011;10194;50.824;7.134;2023-05-24T05:48:26;152.23;;;105.03;;
20067;SDS011;10194;50.824;7.134;2023-05-24T05:50:52;144.77;;;91.83;;
20067;SDS011;10194;50.824;7.134;2023-05-24T05:53:18;141.93;;;89.00;;
20067;SDS011;10194;50.824;7.134;2023-05-24T05:55:44;147.83;;;89.77;;
20067;SDS011;10194;50.824;7.134;2023-05-24T05:58:09;136.90;;;81.13;;
20067;SDS011;10194;50.824;7.134;2023-05-24T06:00:36;144.20;;;78.53;;
20067;SDS011;10194;50.824;7.134;2023-05-24T06:03:03;134.70;;;71.50;;
20067;SDS011;10194;50.824;7.134;2023-05-24T06:05:29;132.67;;;72.37;;
20067;SDS011;10194;50.824;7.134;2023-05-24T06:07:55;134.07;;;71.67;;
20067;SDS011;10194;50.824;7.134;2023-05-24T06:10:21;135.03;;;70.20;;
20067;SDS011;10194;50.824;7.134;2023-05-24T06:12:46;137.97;;;72.03;;
20067;SDS011;10194;50.824;7.134;2023-05-24T06:15:12;131.43;;;72.10;;
20067;SDS011;10194;50.824;7.134;2023-05-24T06:17:38;139.97;;;70.73;;
20067;SDS011;10194;50.824;7.134;2023-05-24T06:20:06;135.10;;;69.87;;
20067;SDS011;10194;50.824;7.134;2023-05-24T06:22:40;143.67;;;69.10;;
20067;SDS011;10194;50.824;7.134;2023-05-24T06:25:06;140.50;;;66.63;;
20067;SDS011;10194;50.824;7.134;2023-05-24T06:27:33;142.10;;;66.60;;
20067;SDS011;10194;50.824;7.134;2023-05-24T06:29:59;142.40;;;68.20;;
20067;SDS011;10194;50.824;7.134;2023-05-24T06:32:25;143.90;;;71.00;;
20067;SDS011;10194;50.824;7.134;2023-05-24T06:34:50;144.17;;;73.47;;
20067;SDS011;10194;50.824;7.134;2023-05-24T06:37:16;141.20;;;75.47;;
20067;SDS011;10194;50.824;7.134;2023-05-24T06:39:42;147.47;;;76.87;;
20067;SDS011;10194;50.824;7.134;2023-05-24T06:42:08;144.40;;;78.07;;
20067;SDS011;10194;50.824;7.134;2023-05-24T06:44:33;140.90;;;77.97;;
20067;SDS011;10194;50.824;7.134;2023-05-24T06:46:59;143.27;;;77.93;;
20067;SDS011;10194;50.824;7.134;2023-05-24T06:49:26;158.60;;;82.73;;
20067;SDS011;10194;50.824;7.134;2023-05-24T06:51:52;143.87;;;78.03;;
20067;SDS011;10194;50.824;7.134;2023-05-24T06:54:18;140.70;;;75.43;;
20067;SDS011;10194;50.824;7.134;2023-05-24T06:56:44;139.27;;;75.23;;
20067;SDS011;10194;50.824;7.134;2023-05-24T06:59:10;141.93;;;74.73;;
20067;SDS011;10194;50.824;7.134;2023-05-24T07:01:35;139.60;;;75.03;;
20067;SDS011;10194;50.824;7.134;2023-05-24T07:04:06;140.27;;;74.33;;
20067;SDS011;10194;50.824;7.134;2023-05-24T07:06:35;143.30;;;75.10;;
20067;SDS011;10194;50.824;7.134;2023-05-24T07:09:03;141.90;;;75.93;;
20067;SDS011;10194;50.824;7.134;2023-05-24T07:11:30;143.33;;;77.47;;
20067;SDS011;10194;50.824;7.134;2023-05-24T07:13:56;141.23;;;78.07;;
20067;SDS011;10194;50.824;7.134;2023-05-24T07:16:22;144.80;;;77.83;;
20067;SDS011;10194;50.824;7.134;2023-05-24T07:18:48;142.50;;;79.70;;
20067;SDS011;10194;50.824;7.134;2023-05-24T07:21:14;142.60;;;80.50;;
20067;SDS011;10194;50.824;7.134;2023-05-24T07:23:39;144.53;;;79.77;;
20067;SDS011;10194;50.824;7.134;2023-05-24T07:26:05;143.23;;;78.37;;
20067;SDS011;10194;50.824;7.134;2023-05-24T07:28:32;140.60;;;76.87;;
20067;SDS011;10194;50.824;7.134;2023-05-24T07:31:01;141.70;;;75.87;;
20067;SDS011;10194;50.824;7.134;2023-05-24T07:33:28;148.30;;;75.67;;
20067;SDS011;10194;50.824;7.134;2023-05-24T07:35:54;139.27;;;72.90;;
20067;SDS011;10194;50.824;7.134;2023-05-24T07:38:19;137.83;;;72.23;;
20067;SDS011;10194;50.824;7.134;2023-05-24T07:40:45;138.30;;;70.67;;
20067;SDS011;10194;50.824;7.134;2023-05-24T07:43:11;138.37;;;70.10;;
20067;SDS011;10194;50.824;7.134;2023-05-24T07:45:37;142.43;;;69.03;;
20067;SDS011;10194;50.824;7.134;2023-05-24T07:48:03;138.70;;;68.57;;
20067;SDS011;10194;50.824;7.134;2023-05-24T07:50:28;134.40;;;67.60;;
20067;SDS011;10194;50.824;7.134;2023-05-24T07:52:55;137.33;;;67.43;;
20067;SDS011;10194;50.824;7.134;2023-05-24T07:55:21;137.93;;;67.20;;
20067;SDS011;10194;50.824;7.134;2023-05-24T07:57:47;137.77;;;66.73;;
20067;SDS011;10194;50.824;7.134;2023-05-24T08:00:13;139.47;;;68.03;;
20067;SDS011;10194;50.824;7.134;2023-05-24T08:02:40;145.50;;;67.93;;
20067;SDS011;10194;50.824;7.134;2023-05-24T08:05:07;138.13;;;67.97;;
20067;SDS011;10194;50.824;7.134;2023-05-24T08:07:36;140.53;;;66.80;;
20067;SDS011;10194;50.824;7.134;2023-05-24T08:10:02;134.57;;;66.60;;
20067;SDS011;10194;50.824;7.134;2023-05-24T08:12:28;138.23;;;67.77;;
20067;SDS011;10194;50.824;7.134;2023-05-24T08:14:57;141.50;;;68.37;;
20067;SDS011;10194;50.824;7.134;2023-05-24T08:17:22;151.47;;;68.80;;
20067;SDS011;10194;50.824;7.134;2023-05-24T08:19:48;139.13;;;68.90;;
20067;SDS011;10194;50.824;7.134;2023-05-24T08:22:14;139.13;;;69.00;;
20067;SDS011;10194;50.824;7.134;2023-05-24T08:24:40;137.03;;;68.50;;
20067;SDS011;10194;50.824;7.134;2023-05-24T08:27:06;145.13;;;69.20;;
20067;SDS011;10194;50.824;7.134;2023-05-24T08:29:32;145.27;;;70.43;;
20067;SDS011;10194;50.824;7.134;2023-05-24T08:31:59;137.07;;;68.17;;
20067;SDS011;10194;50.824;7.134;2023-05-24T08:34:26;139.60;;;68.80;;
20067;SDS011;10194;50.824;7.134;2023-05-24T08:36:52;140.97;;;67.93;;
20067;SDS011;10194;50.824;7.134;2023-05-24T08:39:19;143.73;;;69.70;;
20067;SDS011;10194;50.824;7.134;2023-05-24T08:41:45;142.93;;;68.40;;
20067;SDS011;10194;50.824;7.134;2023-05-24T08:44:11;143.50;;;68.40;;
20067;SDS011;10194;50.824;7.134;2023-05-24T08:46:37;140.97;;;69.13;;
20067;SDS011;10194;50.824;7.134;2023-05-24T08:49:03;145.27;;;69.77;;
20067;SDS011;10194;50.824;7.134;2023-05-24T08:51:31;139.03;;;69.53;;
20067;SDS011;10194;50.824;7.134;2023-05-24T08:53:58;137.87;;;69.37;;
20067;SDS011;10194;50.824;7.134;2023-05-24T08:56:25;141.83;;;69.40;;
20067;SDS011;10194;50.824;7.134;2023-05-24T08:58:53;136.40;;;68.13;;
20067;SDS011;10194;50.824;7.134;2023-05-24T09:01:19;141.67;;;68.83;;
20067;SDS011;10194;50.824;7.134;2023-05-24T09:03:46;141.47;;;70.30;;
20067;SDS011;10194;50.824;7.134;2023-05-24T09:06:13;139.63;;;68.93;;
20067;SDS011;10194;50.824;7.134;2023-05-24T09:08:42;140.00;;;68.67;;
20067;SDS011;10194;50.824;7.134;2023-05-24T09:11:09;140.30;;;69.53;;
20067;SDS011;10194;50.824;7.134;2023-05-24T09:13:35;139.30;;;69.10;;
20067;SDS011;10194;50.824;7.134;2023-05-24T09:16:02;142.20;;;68.20;;
20067;SDS011;10194;50.824;7.134;2023-05-24T09:18:30;135.40;;;68.27;;
20067;SDS011;10194;50.824;7.134;2023-05-24T09:20:55;138.97;;;68.80;;
20067;SDS011;10194;50.824;7.134;2023-05-24T09:23:21;138.63;;;68.33;;
20067;SDS011;10194;50.824;7.134;2023-05-24T09:25:50;139.17;;;68.50;;
20067;SDS011;10194;50.824;7.134;2023-05-24T09:28:16;139.40;;;69.17;;
20067;SDS011;10194;50.824;7.134;2023-05-24T09:30:43;143.10;;;69.37;;
20067;SDS011;10194;50.824;7.134;2023-05-24T09:33:11;142.87;;;69.93;;
20067;SDS011;10194;50.824;7.134;2023-05-24T09:35:40;142.93;;;70.10;;
20067;SDS011;10194;50.824;7.134;2023-05-24T09:38:15;138.40;;;68.97;;
20067;SDS011;10194;50.824;7.134;2023-05-24T09:40:44;141.97;;;70.87;;
20067;SDS011;10194;50.824;7.134;2023-05-24T09:43:10;142.50;;;71.40;;
20067;SDS011;10194;50.824;7.134;2023-05-24T09:45:43;142.90;;;71.63;;
20067;SDS011;10194;50.824;7.134;2023-05-24T09:48:14;142.00;;;71.63;;
20067;SDS011;10194;50.824;7.134;2023-05-24T09:50:41;140.73;;;70.53;;
20067;SDS011;10194;50.824;7.134;2023-05-24T09:53:11;139.73;;;70.97;;
20067;SDS011;10194;50.824;7.134;2023-05-24T09:55:37;145.13;;;70.93;;
20067;SDS011;10194;50.824;7.134;2023-05-24T09:58:04;142.07;;;71.30;;
20067;SDS011;10194;50.824;7.134;2023-05-24T10:00:36;139.57;;;71.40;;
20067;SDS011;10194;50.824;7.134;2023-05-24T10:03:08;138.57;;;72.23;;
20067;SDS011;10194;50.824;7.134;2023-05-24T10:05:36;145.37;;;72.00;;
20067;SDS011;10194;50.824;7.134;2023-05-24T10:08:06;140.13;;;72.10;;
20067;SDS011;10194;50.824;7.134;2023-05-24T10:10:34;141.57;;;72.40;;
20067;SDS011;10194;50.824;7.134;2023-05-24T10:13:00;138.93;;;72.00;;
20067;SDS011;10194;50.824;7.134;2023-05-24T10:15:27;140.27;;;71.80;;
20067;SDS011;10194;50.824;7.134;2023-05-24T10:17:55;138.27;;;71.47;;
20067;SDS011;10194;50.824;7.134;2023-05-24T10:20:22;140.10;;;71.83;;
20067;SDS011;10194;50.824;7.134;2023-05-24T10:22:50;138.33;;;71.57;;
20067;SDS011;10194;50.824;7.134;2023-05-24T10:25:21;138.23;;;72.20;;
20067;SDS011;10194;50.824;7.134;2023-05-24T10:27:57;139.23;;;72.80;;
20067;SDS011;10194;50.824;7.134;2023-05-24T10:33:01;140.13;;;72.13;;
20067;SDS011;10194;50.824;7.134;2023-05-24T10:35:30;140.03;;;71.43;;
20067;SDS011;10194;50.824;7.134;2023-05-24T10:37:57;143.27;;;71.77;;
20067;SDS011;10194;50.824;7.134;2023-05-24T10:40:23;140.93;;;72.07;;
20067;SDS011;10194;50.824;7.134;2023-05-24T10:42:50;138.43;;;70.93;;
20067;SDS011;10194;50.824;7.134;2023-05-24T10:47:47;140.63;;;72.40;;
20067;SDS011;10194;50.824;7.134;2023-05-24T10:50:19;148.20;;;74.20;;
20067;SDS011;10194;50.824;7.134;2023-05-24T10:52:48;141.97;;;72.40;;
20067;SDS011;10194;50.824;7.134;2023-05-24T10:55:14;139.60;;;71.47;;
20067;SDS011;10194;50.824;7.134;2023-05-24T10:57:43;138.70;;;70.93;;
20067;SDS011;10194;50.824;7.134;2023-05-24T11:03:12;139.40;;;71.90;;
20067;SDS011;10194;50.824;7.134;2023-05-24T11:05:48;137.80;;;71.13;;
20067;SDS011;10194;50.824;7.134;2023-05-24T11:08:23;140.07;;;71.33;;
20067;SDS011;10194;50.824;7.134;2023-05-24T11:11:07;142.47;;;71.10;;
20067;SDS011;10194;50.824;7.134;2023-05-24T11:13:37;139.60;;;70.33;;
20067;SDS011;10194;50.824;7.134;2023-05-24T11:16:05;141.83;;;70.77;;
20067;SDS011;10194;50.824;7.134;2023-05-24T11:18:31;139.67;;;70.30;;
20067;SDS011;10194;50.824;7.134;2023-05-24T11:21:02;140.13;;;70.73;;
20067;SDS011;10194;50.824;7.134;2023-05-24T11:23:30;138.10;;;71.17;;
20067;SDS011;10194;50.824;7.134;2023-05-24T11:25:56;141.20;;;71.00;;
20067;SDS011;10194;50.824;7.134;2023-05-24T11:28:23;137.53;;;71.10;;
20067;SDS011;10194;50.824;7.134;2023-05-24T11:30:49;136.97;;;70.87;;
20067;SDS011;10194;50.824;7.134;2023-05-24T11:33:21;139.10;;;71.97;;
20067;SDS011;10194;50.824;7.134;2023-05-24T11:35:52;139.30;;;70.83;;
20067;SDS011;10194;50.824;7.134;2023-05-24T11:38:19;139.07;;;71.53;;
20067;SDS011;10194;50.824;7.134;2023-05-24T11:40:46;139.30;;;71.30;;
20067;SDS011;10194;50.824;7.134;2023-05-24T11:43:15;140.93;;;71.67;;
20067;SDS011;10194;50.824;7.134;2023-05-24T11:45:47;144.77;;;71.53;;
20067;SDS011;10194;50.824;7.134;2023-05-24T11:48:15;142.67;;;70.83;;
20067;SDS011;10194;50.824;7.134;2023-05-24T11:50:43;142.03;;;71.37;;
20067;SDS011;10194;50.824;7.134;2023-05-24T11:53:13;140.23;;;70.50;;
20067;SDS011;10194;50.824;7.134;2023-05-24T11:55:41;139.17;;;70.03;;
20067;SDS011;10194;50.824;7.134;2023-05-24T11:58:23;138.27;;;70.30;;
20067;SDS011;10194;50.824;7.134;2023-05-24T12:00:55;138.13;;;69.83;;
20067;SDS011;10194;50.824;7.134;2023-05-24T12:03:20;138.17;;;69.90;;
20067;SDS011;10194;50.824;7.134;2023-05-24T12:05:47;143.40;;;69.90;;
20067;SDS011;10194;50.824;7.134;2023-05-24T12:08:13;133.63;;;67.60;;
20067;SDS011;10194;50.824;7.134;2023-05-24T12:10:42;135.90;;;68.33;;
20067;SDS011;10194;50.824;7.134;2023-05-24T12:13:21;137.43;;;68.03;;
20067;SDS011;10194;50.824;7.134;2023-05-24T12:15:50;138.27;;;67.30;;
20067;SDS011;10194;50.824;7.134;2023-05-24T12:18:18;134.67;;;67.93;;
20067;SDS011;10194;50.824;7.134;2023-05-24T12:20:48;135.50;;;68.03;;
20067;SDS011;10194;50.824;7.134;2023-05-24T12:23:15;136.00;;;68.53;;
20067;SDS011;10194;50.824;7.134;2023-05-24T12:25:47;132.90;;;68.30;;
20067;SDS011;10194;50.824;7.134;2023-05-24T12:28:14;139.33;;;69.37;;
20067;SDS011;10194;50.824;7.134;2023-05-24T12:30:40;136.80;;;69.23;;
20067;SDS011;10194;50.824;7.134;2023-05-24T12:33:11;137.43;;;68.77;;
20067;SDS011;10194;50.824;7.134;2023-05-24T12:35:40;147.00;;;70.67;;
20067;SDS011;10194;50.824;7.134;2023-05-24T12:38:08;138.37;;;68.27;;
20067;SDS011;10194;50.824;7.134;2023-05-24T12:40:35;134.90;;;68.57;;
20067;SDS011;10194;50.824;7.134;2023-05-24T12:43:01;141.97;;;70.97;;
20067;SDS011;10194;50.824;7.134;2023-05-24T12:45:28;136.70;;;70.57;;
20067;SDS011;10194;50.824;7.134;2023-05-24T12:47:56;139.67;;;70.07;;
20067;SDS011;10194;50.824;7.134;2023-05-24T12:50:26;140.27;;;70.57;;
20067;SDS011;10194;50.824;7.134;2023-05-24T12:52:52;137.00;;;70.87;;
20067;SDS011;10194;50.824;7.134;2023-05-24T12:55:21;138.87;;;72.50;;
20067;SDS011;10194;50.824;7.134;2023-05-24T12:57:50;137.77;;;71.93;;
20067;SDS011;10194;50.824;7.134;2023-05-24T13:00:18;139.30;;;72.10;;
20067;SDS011;10194;50.824;7.134;2023-05-24T13:02:53;140.43;;;71.90;;
20067;SDS011;10194;50.824;7.134;2023-05-24T13:05:22;138.67;;;71.97;;
20067;SDS011;10194;50.824;7.134;2023-05-24T13:07:49;136.67;;;71.30;;
20067;SDS011;10194;50.824;7.134;2023-05-24T13:10:16;139.17;;;71.53;;
20067;SDS011;10194;50.824;7.134;2023-05-24T13:12:43;143.07;;;71.37;;
20067;SDS011;10194;50.824;7.134;2023-05-24T13:15:10;138.50;;;70.70;;
20067;SDS011;10194;50.824;7.134;2023-05-24T13:17:36;139.90;;;70.70;;
20067;SDS011;10194;50.824;7.134;2023-05-24T13:20:03;143.33;;;71.50;;
20067;SDS011;10194;50.824;7.134;2023-05-24T13:22:32;142.70;;;70.97;;
20067;SDS011;10194;50.824;7.134;2023-05-24T13:25:01;138.57;;;69.80;;
20067;SDS011;10194;50.824;7.134;2023-05-24T13:27:28;139.93;;;71.07;;
20067;SDS011;10194;50.824;7.134;2023-05-24T13:29:54;139.57;;;70.97;;
20067;SDS011;10194;50.824;7.134;2023-05-24T13:32:21;140.20;;;71.10;;
20067;SDS011;10194;50.824;7.134;2023-05-24T13:34:46;140.03;;;70.97;;
20067;SDS011;10194;50.824;7.134;2023-05-24T13:37:13;138.37;;;71.20;;
20067;SDS011;10194;50.824;7.134;2023-05-24T13:39:40;141.03;;;71.63;;
20067;SDS011;10194;50.824;7.134;2023-05-24T13:42:07;141.30;;;72.47;;
20067;SDS011;10194;50.824;7.134;2023-05-24T13:44:34;137.83;;;72.30;;
20067;SDS011;10194;50.824;7.134;2023-05-24T13:47:01;139.70;;;72.50;;
20067;SDS011;10194;50.824;7.134;2023-05-24T13:49:27;140.80;;;72.13;;
20067;SDS011;10194;50.824;7.134;2023-05-24T13:51:53;138.73;;;71.90;;
20067;SDS011;10194;50.824;7.134;2023-05-24T13:54:19;139.57;;;70.97;;
20067;SDS011;10194;50.824;7.134;2023-05-24T13:56:46;136.47;;;70.33;;
20067;SDS011;10194;50.824;7.134;2023-05-24T13:59:13;142.63;;;71.23;;
20067;SDS011;10194;50.824;7.134;2023-05-24T14:01:40;142.53;;;72.33;;
20067;SDS011;10194;50.824;7.134;2023-05-24T14:04:06;141.83;;;71.77;;
20067;SDS011;10194;50.824;7.134;2023-05-24T14:06:32;143.63;;;72.70;;
20067;SDS011;10194;50.824;7.134;2023-05-24T14:08:58;145.17;;;72.73;;
20067;SDS011;10194;50.824;7.134;2023-05-24T14:11:25;140.37;;;71.47;;
20067;SDS011;10194;50.824;7.134;2023-05-24T14:13:55;140.17;;;72.13;;
20067;SDS011;10194;50.824;7.134;2023-05-24T14:16:21;142.47;;;72.40;;
20067;SDS011;10194;50.824;7.134;2023-05-24T14:18:47;139.23;;;72.07;;
20067;SDS011;10194;50.824;7.134;2023-05-24T14:21:14;144.90;;;73.57;;
20067;SDS011;10194;50.824;7.134;2023-05-24T14:23:42;137.97;;;71.43;;
20067;SDS011;10194;50.824;7.134;2023-05-24T14:26:08;136.13;;;71.33;;